Time;durP1;ratioP1;P1;durP2;ratioP2;P2;SDS_P1;SDS_P2;PMS_P1;PMS_P2;Temp;Humidity;BMP_temperature;BMP_pressure;BME280_temperature;BME280_humidity;BME280_pressure;Samples;Min_cycle;Max_cycle;Signal;HPM_P1;HPM_P2
2021/05/04 00:01:42;;;;;;;5.55;1.45;;;;;;;7.88;89.44;100743.75;1665740;86;21187;-82
2021/05/04 00:04:08;;;;;;;4.37;1.87;;;;;;;7.83;90.24;100743.67;1669707;86;21012;-82
2021/05/04 00:06:34;;;;;;;4.60;1.75;;;;;;;7.84;90.75;100743.95;1669500;85;21616;-82
2021/05/04 00:09:00;;;;;;;5.03;1.80;;;;;;;7.77;91.71;100749.46;1669435;85;20961;-83
2021/05/04 00:11:26;;;;;;;6.83;1.60;;;;;;;7.82;90.46;100745.52;1681426;85;20926;-82
2021/05/04 00:13:52;;;;;;;5.10;1.55;;;;;;;7.80;90.76;100743.62;1681341;85;21155;-82
2021/05/04 00:16:18;;;;;;;5.35;1.47;;;;;;;7.71;92.04;100749.88;1681397;85;21088;-83
2021/05/04 00:18:44;;;;;;;9.70;2.05;;;;;;;7.73;92.21;100756.33;1681425;85;21171;-83
2021/05/04 00:21:10;;;;;;;4.50;1.60;;;;;;;7.69;92.81;100754.66;1681338;85;20946;-83
2021/05/04 00:23:36;;;;;;;4.58;2.00;;;;;;;7.66;93.20;100752.98;1681401;85;20946;-83
2021/05/04 00:26:02;;;;;;;3.52;1.75;;;;;;;7.66;91.95;100756.47;1681378;85;20942;-83
2021/05/04 00:28:28;;;;;;;3.75;1.55;;;;;;;7.57;94.18;100756.55;1681243;85;21108;-83
2021/05/04 00:30:55;;;;;;;3.58;1.70;;;;;;;7.61;91.97;100752.86;1659856;85;20978;-83
2021/05/04 00:33:20;;;;;;;4.17;1.77;;;;;;;7.56;92.76;100752.25;1681281;85;21626;-83
2021/05/04 00:35:48;;;;;;;3.85;1.65;;;;;;;7.55;94.58;100753.81;1681437;85;20993;-83
2021/05/04 00:38:14;;;;;;;3.52;1.52;;;;;;;7.53;92.99;100755.41;1681390;85;21199;-83
2021/05/04 00:40:41;;;;;;;3.42;1.70;;;;;;;7.43;95.75;100758.66;1681356;85;21156;-83
2021/05/04 00:43:06;;;;;;;2.85;1.72;;;;;;;7.38;96.96;100760.41;1681319;85;21219;-83
2021/05/04 00:45:32;;;;;;;4.58;2.02;;;;;;;7.38;97.28;100759.91;1681202;85;21092;-83
2021/05/04 00:47:58;;;;;;;8.43;1.85;;;;;;;7.34;96.75;100760.06;1681204;84;21013;-82
2021/05/04 00:50:24;;;;;;;3.55;1.70;;;;;;;7.34;96.79;100768.11;1669669;86;21049;-83
2021/05/04 00:52:51;;;;;;;7.22;1.87;;;;;;;7.23;99.82;100756.33;1669648;85;21687;-83
2021/05/04 00:55:18;;;;;;;11.63;2.17;;;;;;;7.21;99.72;100759.79;1669557;85;21787;-83
2021/05/04 00:57:44;;;;;;;4.87;1.85;;;;;;;7.21;100.00;100764.34;1669563;86;21146;-83
2021/05/04 01:00:12;;;;;;;4.92;1.90;;;;;;;7.21;100.00;100764.34;1669659;85;20989;-83
2021/05/04 01:02:40;;;;;;;6.15;1.50;;;;;;;7.19;100.00;100762.41;1646188;86;21175;-83
2021/05/04 01:05:09;;;;;;;2.12;1.35;;;;;;;7.16;100.00;100759.66;1669651;85;21163;-83
2021/05/04 01:07:35;;;;;;;3.33;1.60;;;;;;;7.15;98.95;100768.77;1669620;86;21563;-83
2021/05/04 01:10:03;;;;;;;7.30;1.70;;;;;;;7.11;99.80;100766.23;1669459;85;21159;-83
2021/05/04 01:12:29;;;;;;;3.92;1.60;;;;;;;7.09;100.00;100767.52;1669696;86;21215;-83
2021/05/04 01:14:56;;;;;;;4.67;1.90;;;;;;;7.05;100.00;100767.17;1669594;86;21211;-83
2021/05/04 01:17:22;;;;;;;4.80;1.50;;;;;;;7.08;100.00;100766.70;1669659;85;21080;-83
2021/05/04 01:19:48;;;;;;;2.90;1.80;;;;;;;7.02;100.00;100760.94;1669788;85;22019;-83
2021/05/04 01:22:14;;;;;;;7.37;1.70;;;;;;;7.00;100.00;100765.70;1669543;86;21033;-83
2021/05/04 01:24:40;;;;;;;4.95;1.40;;;;;;;6.97;100.00;100765.66;1669521;86;21068;-83
2021/05/04 01:27:07;;;;;;;3.92;1.60;;;;;;;6.91;100.00;100765.75;1669576;86;21162;-83
2021/05/04 01:29:33;;;;;;;8.05;1.70;;;;;;;6.83;100.00;100768.27;1669649;85;21147;-83
2021/05/04 01:31:59;;;;;;;2.98;1.45;;;;;;;6.80;100.00;100765.52;1669612;85;21149;-83
2021/05/04 01:34:25;;;;;;;2.55;1.40;;;;;;;6.76;100.00;100768.34;1669658;85;21187;-83
2021/05/04 01:36:51;;;;;;;7.72;1.62;;;;;;;6.75;100.00;100768.06;1669653;85;21679;-83
2021/05/04 01:39:19;;;;;;;4.47;2.22;;;;;;;6.73;100.00;100772.83;1669481;85;20985;-83
2021/05/04 01:41:45;;;;;;;4.70;1.37;;;;;;;6.70;100.00;100778.64;1659632;85;21208;-83
2021/05/04 01:44:11;;;;;;;3.10;1.95;;;;;;;6.71;100.00;100774.94;1681361;85;21129;-83
2021/05/04 01:46:38;;;;;;;4.20;1.70;;;;;;;6.65;100.00;100778.53;1681309;85;21064;-82
2021/05/04 01:49:06;;;;;;;2.77;1.45;;;;;;;6.63;100.00;100785.97;1681357;84;21565;-83
2021/05/04 01:51:34;;;;;;;3.42;1.80;;;;;;;6.52;100.00;100782.73;1646279;86;21087;-83
2021/05/04 01:54:00;;;;;;;5.75;1.90;;;;;;;6.52;100.00;100787.56;1669635;85;21126;-83
2021/05/04 01:56:27;;;;;;;6.30;1.45;;;;;;;6.48;100.00;100785.05;1669775;85;21988;-83
2021/05/04 01:59:01;;;;;;;5.85;2.17;;;;;;;6.49;100.00;100794.70;1669536;85;21635;-83
2021/05/04 02:01:23;;;;;;;4.12;1.80;;;;;;;6.48;100.00;100794.95;1669508;85;21151;-83
2021/05/04 02:03:49;;;;;;;4.25;1.72;;;;;;;6.44;100.00;100793.75;1669814;85;20913;-83
2021/05/04 02:06:15;;;;;;;4.15;1.60;;;;;;;6.42;100.00;100798.02;1669674;86;21234;-83
2021/05/04 02:08:41;;;;;;;4.67;1.87;;;;;;;6.46;100.00;100799.18;1669727;85;21551;-83
2021/05/04 02:11:07;;;;;;;3.08;1.82;;;;;;;6.39;100.00;100804.34;1669626;85;21135;-83
2021/05/04 02:13:33;;;;;;;5.75;2.10;;;;;;;6.35;100.00;100806.14;1669763;85;20972;-83
2021/05/04 02:15:58;;;;;;;4.12;2.15;;;;;;;6.35;100.00;100809.31;1669686;85;20953;-83
2021/05/04 02:18:24;;;;;;;4.15;1.95;;;;;;;6.35;100.00;100808.82;1669806;86;21059;-83
2021/05/04 02:20:50;;;;;;;6.47;1.62;;;;;;;6.34;100.00;100805.02;1669652;85;22036;-83
2021/05/04 02:23:16;;;;;;;5.78;2.20;;;;;;;6.36;100.00;100813.12;1669660;85;21040;-83
2021/05/04 02:25:42;;;;;;;10.53;2.10;;;;;;;6.34;100.00;100815.19;1669780;85;21607;-83
2021/05/04 02:28:08;;;;;;;4.30;1.80;;;;;;;6.39;100.00;100814.53;1669735;86;20960;-83
2021/05/04 02:30:34;;;;;;;2.98;1.85;;;;;;;6.45;100.00;100823.52;1669756;85;21061;-83
2021/05/04 02:33:02;;;;;;;7.05;1.98;;;;;;;6.46;100.00;100825.14;1646352;86;21306;-83
2021/05/04 02:35:28;;;;;;;3.50;1.90;;;;;;;6.49;100.00;100826.84;1669650;86;21120;-83
2021/05/04 02:37:54;;;;;;;8.98;1.60;;;;;;;6.53;100.00;100821.34;1669575;86;21572;-83
2021/05/04 02:40:20;;;;;;;7.55;1.98;;;;;;;6.55;100.00;100831.28;1669480;86;21153;-83
2021/05/04 02:42:47;;;;;;;5.55;1.70;;;;;;;6.54;100.00;100835.54;1669707;85;21176;-83
2021/05/04 02:45:14;;;;;;;6.10;2.08;;;;;;;6.63;100.00;100842.20;1668982;85;21263;-84
2021/05/04 02:47:39;;;;;;;6.95;2.10;;;;;;;6.68;100.00;100847.70;1669627;85;21838;-83
2021/05/04 02:50:06;;;;;;;7.67;1.90;;;;;;;6.77;100.00;100853.03;1676435;85;20992;-83
2021/05/04 02:52:33;;;;;;;4.55;2.25;;;;;;;6.75;100.00;100851.09;1676998;84;21170;-83
2021/05/04 02:54:59;;;;;;;4.92;2.37;;;;;;;6.81;100.00;100856.06;1677026;85;21154;-83
2021/05/04 02:57:25;;;;;;;5.90;2.15;;;;;;;6.97;100.00;100854.58;1677063;85;21225;-83
2021/05/04 02:59:51;;;;;;;6.00;2.10;;;;;;;6.96;100.00;100857.78;1676876;85;21238;-83
2021/05/04 03:02:17;;;;;;;4.78;2.02;;;;;;;7.17;100.00;100867.15;1677047;85;20980;-83
2021/05/04 03:04:43;;;;;;;6.00;2.30;;;;;;;7.22;100.00;100870.48;1676935;85;20969;-83
2021/05/04 03:07:09;;;;;;;6.08;2.37;;;;;;;7.33;100.00;100864.86;1677006;85;20977;-84
2021/05/04 03:09:35;;;;;;;6.53;2.17;;;;;;;7.49;100.00;100865.50;1649479;85;21785;-83
2021/05/04 03:12:01;;;;;;;5.90;2.08;;;;;;;7.57;100.00;100867.84;1698858;83;20973;-83
2021/05/04 03:14:27;;;;;;;4.30;2.05;;;;;;;7.55;100.00;100864.57;1677023;84;21122;-83
2021/05/04 03:16:53;;;;;;;6.28;2.35;;;;;;;7.72;100.00;100857.98;1649612;85;21024;-83
2021/05/04 03:19:19;;;;;;;4.30;1.80;;;;;;;7.72;100.00;100857.98;1698628;83;21116;-83
2021/05/04 03:21:45;;;;;;;4.47;2.20;;;;;;;7.85;100.00;100877.87;1676929;85;21208;-83
2021/05/04 03:24:11;;;;;;;10.35;2.58;;;;;;;8.01;100.00;100872.31;1676884;85;21048;-83
2021/05/04 03:26:37;;;;;;;5.85;2.52;;;;;;;8.30;100.00;100872.38;1676965;84;21207;-83
2021/05/04 03:29:04;;;;;;;5.08;2.47;;;;;;;8.79;93.03;100872.79;1676908;85;21043;-84
2021/05/04 03:31:30;;;;;;;4.58;2.02;;;;;;;9.67;95.20;100875.86;1677008;84;21599;-84
2021/05/04 03:33:55;;;;;;;3.58;2.00;;;;;;;10.52;80.28;100873.22;1676900;85;21156;-84
2021/05/04 03:36:21;;;;;;;5.33;2.12;;;;;;;11.65;84.18;100878.27;1676920;85;21079;-85
2021/05/04 03:38:47;;;;;;;4.00;2.33;;;;;;;12.24;67.62;100872.70;1677127;85;20985;-84
2021/05/04 03:41:13;;;;;;;4.75;2.35;;;;;;;13.16;67.96;100872.37;1676977;84;21560;-85
2021/05/04 03:43:39;;;;;;;4.12;1.87;;;;;;;13.85;63.10;100888.59;1676946;85;21049;-85
2021/05/04 03:46:05;;;;;;;6.75;2.37;;;;;;;14.65;61.93;100889.69;1676856;85;21698;-85
2021/05/04 03:48:31;;;;;;;4.30;1.82;;;;;;;14.73;54.49;100889.08;1675298;84;21396;-85
2021/05/04 03:50:57;;;;;;;4.37;1.80;;;;;;;15.11;49.00;100883.39;1639205;87;21584;-86
2021/05/04 03:53:23;;;;;;;7.22;2.12;;;;;;;16.22;51.04;100881.27;1667885;85;21017;-86
2021/05/04 03:55:49;;;;;;;4.72;1.98;;;;;;;16.26;46.86;100882.30;1668059;86;21054;-86
2021/05/04 03:58:16;;;;;;;4.10;1.85;;;;;;;16.74;45.79;100880.87;1639486;87;21257;-86
2021/05/04 04:00:42;;;;;;;4.00;2.25;;;;;;;17.04;43.93;100885.63;1667910;86;21159;-85
2021/05/04 04:03:08;;;;;;;4.83;1.70;;;;;;;17.63;42.79;100883.30;1667790;86;21173;-86
2021/05/04 04:05:34;;;;;;;4.37;1.95;;;;;;;18.13;45.40;100890.30;1617090;87;21033;-86
2021/05/04 04:08:00;;;;;;;5.97;2.08;;;;;;;18.61;44.33;100891.99;1668016;85;21172;-86
2021/05/04 04:10:26;;;;;;;3.37;2.05;;;;;;;18.73;42.51;100890.13;1667889;85;21946;-87
2021/05/04 04:12:53;;;;;;;3.55;1.72;;;;;;;19.55;39.58;100905.14;1639366;86;21628;-86
2021/05/04 04:15:19;;;;;;;7.10;2.30;;;;;;;19.20;40.39;100901.60;1668034;85;21076;-87
2021/05/04 04:17:45;;;;;;;5.17;1.80;;;;;;;19.00;37.97;100907.02;1667932;86;20933;-86
2021/05/04 04:20:11;;;;;;;3.62;2.17;;;;;;;18.47;36.44;100908.14;1639468;86;20937;-86
2021/05/04 04:22:38;;;;;;;4.10;1.85;;;;;;;19.91;39.74;100904.49;1667952;85;21660;-87
2021/05/04 04:25:06;;;;;;;6.03;2.30;;;;;;;19.00;36.14;100915.21;1667870;85;21656;-87
2021/05/04 04:27:32;;;;;;;5.75;2.20;;;;;;;19.44;37.14;100905.95;1639344;87;21164;-86
2021/05/04 04:29:58;;;;;;;4.05;1.67;;;;;;;20.52;36.81;100911.55;1667751;85;21540;-86
2021/05/04 04:32:24;;;;;;;3.30;1.67;;;;;;;21.61;36.40;100900.19;1667802;85;20972;-87
2021/05/04 04:34:52;;;;;;;5.00;1.90;;;;;;;22.06;34.69;100908.76;1639375;87;21259;-87
2021/05/04 04:37:18;;;;;;;5.72;2.30;;;;;;;21.53;35.25;100908.66;1668005;85;21223;-85
2021/05/04 04:39:44;;;;;;;4.92;2.00;;;;;;;21.94;32.41;100917.69;1668008;86;20976;-87
2021/05/04 04:42:10;;;;;;;6.33;1.92;;;;;;;21.95;32.44;100922.60;1639479;87;20965;-87
2021/05/04 04:44:36;;;;;;;12.85;2.58;;;;;;;22.34;34.38;100913.81;1667865;86;21147;-87
2021/05/04 04:47:01;;;;;;;4.45;2.05;;;;;;;22.60;30.52;100921.33;1668031;85;21947;-87
2021/05/04 04:49:28;;;;;;;4.60;2.00;;;;;;;23.76;32.71;100921.65;1639382;86;20997;-87
2021/05/04 04:51:54;;;;;;;6.53;1.95;;;;;;;23.86;28.85;100922.60;1679663;84;21141;-87
2021/05/04 04:54:19;;;;;;;5.17;1.77;;;;;;;24.89;31.00;100920.95;1679676;85;21699;-87
2021/05/04 04:56:45;;;;;;;4.42;1.77;;;;;;;24.77;30.72;100932.02;1679737;85;20946;-86
2021/05/04 04:59:11;;;;;;;7.22;1.90;;;;;;;24.22;30.03;100924.57;1679533;84;21608;-87
2021/05/04 05:01:37;;;;;;;5.85;2.02;;;;;;;24.56;30.25;100932.17;1679491;85;21072;-89
2021/05/04 05:04:04;;;;;;;3.92;2.12;;;;;;;25.42;28.43;100931.94;1679653;85;21001;-86
2021/05/04 05:06:31;;;;;;;4.72;1.70;;;;;;;24.93;27.16;100927.95;1679732;85;21136;-87
2021/05/04 05:08:57;;;;;;;5.20;2.08;;;;;;;24.36;27.18;100931.70;1679713;85;21126;-87
2021/05/04 05:11:23;;;;;;;8.23;2.27;;;;;;;25.02;28.77;100931.95;1679581;85;21176;-88
2021/05/04 05:13:50;;;;;;;4.15;2.00;;;;;;;24.27;27.87;100935.95;1679605;85;21502;-87
2021/05/04 05:16:18;;;;;;;3.72;2.12;;;;;;;24.33;28.22;100932.39;1679612;85;21196;-86
2021/05/04 05:18:44;;;;;;;3.22;1.90;;;;;;;23.49;29.46;100932.09;1679601;85;21581;-88
2021/05/04 05:21:12;;;;;;;3.58;2.05;;;;;;;25.08;27.57;100929.16;1679808;85;21184;-87
2021/05/04 05:23:38;;;;;;;6.08;3.80;;;;;;;25.30;26.97;100932.80;1658132;85;21919;-87
2021/05/04 05:26:05;;;;;;;2.30;1.92;;;;;;;24.75;26.26;100930.17;1679751;84;21171;-87
2021/05/04 05:28:31;;;;;;;4.12;1.90;;;;;;;24.47;28.17;100936.98;1679683;85;21179;-87
2021/05/04 05:30:57;;;;;;;3.27;2.00;;;;;;;25.67;26.58;100933.17;1602856;88;21148;-90
2021/05/04 05:33:23;;;;;;;3.15;2.02;;;;;;;23.37;27.71;100949.94;1625499;88;21162;-87
2021/05/04 05:35:50;;;;;;;3.42;1.85;;;;;;;23.95;28.15;100948.08;1625542;88;21244;-87
2021/05/04 05:38:16;;;;;;;3.52;1.92;;;;;;;23.89;27.78;100949.45;1625341;88;21259;-87
2021/05/04 05:40:43;;;;;;;5.83;2.00;;;;;;;23.50;28.01;100959.86;1625422;88;21231;-86
2021/05/04 05:43:09;;;;;;;2.42;1.80;;;;;;;24.69;26.91;100959.13;1625168;88;21179;-85
2021/05/04 05:45:34;;;;;;;3.20;1.70;;;;;;;24.14;26.18;100952.22;1625494;88;21223;-87
2021/05/04 05:48:00;;;;;;;3.47;2.00;;;;;;;24.84;26.83;100966.69;1625462;88;21624;-87
2021/05/04 05:50:26;;;;;;;4.03;2.00;;;;;;;25.33;25.74;100953.37;1634595;86;21592;-87
2021/05/04 05:52:52;;;;;;;2.50;1.77;;;;;;;25.53;26.46;100957.88;1638975;86;21019;-87
2021/05/04 05:55:18;;;;;;;3.55;1.75;;;;;;;25.15;25.40;100957.00;1662452;84;21647;-87
2021/05/04 05:57:44;;;;;;;6.30;1.72;;;;;;;27.41;24.59;100960.55;1676916;85;21540;-87
2021/05/04 06:00:15;;;;;;;3.35;1.92;;;;;;;26.34;24.14;100959.56;1677143;85;21090;-87
2021/05/04 06:02:40;;;;;;;2.67;1.72;;;;;;;25.95;25.20;100962.95;1676958;85;21683;-87
2021/05/04 06:05:07;;;;;;;7.50;1.90;;;;;;;26.70;25.49;100968.92;1677124;85;20949;-87
2021/05/04 06:07:33;;;;;;;3.42;2.17;;;;;;;27.31;24.56;100949.50;1677131;85;21162;-87
2021/05/04 06:09:58;;;;;;;3.27;2.00;;;;;;;26.82;22.19;100969.38;1672514;85;21079;-86
2021/05/04 06:12:24;;;;;;;6.20;2.25;;;;;;;28.87;21.81;100967.00;1698915;83;21101;-86
2021/05/04 06:14:50;;;;;;;2.60;1.92;;;;;;;28.58;22.66;100958.86;1677137;85;21055;-87
2021/05/04 06:17:16;;;;;;;3.80;1.98;;;;;;;28.44;21.39;100961.64;1677177;85;21031;-88
2021/05/04 06:19:41;;;;;;;3.90;2.00;;;;;;;29.34;22.15;100954.53;1649714;85;21063;-87
2021/05/04 06:22:07;;;;;;;3.52;1.85;;;;;;;28.88;20.79;100965.22;1677028;85;20977;-88
2021/05/04 06:24:33;;;;;;;5.65;2.20;;;;;;;29.31;20.82;100958.86;1676945;85;21167;-87
2021/05/04 06:26:59;;;;;;;5.25;2.00;;;;;;;29.22;20.77;100958.36;1677090;84;21031;-87
2021/05/04 06:29:25;;;;;;;6.30;2.35;;;;;;;28.88;21.29;100951.34;1677199;85;21146;-87
2021/05/04 06:31:58;;;;;;;3.87;2.08;;;;;;;27.24;21.68;100959.61;1677138;85;20968;-87
2021/05/04 06:34:19;;;;;;;2.85;1.98;;;;;;;28.86;22.11;100950.15;1676173;85;21151;-86
2021/05/04 06:36:45;;;;;;;2.30;1.70;;;;;;;28.58;21.29;100960.24;1676967;85;21098;-87
2021/05/04 06:39:10;;;;;;;4.22;2.05;;;;;;;27.73;20.92;100960.37;1649654;84;20988;-87
2021/05/04 06:41:36;;;;;;;2.47;2.00;;;;;;;27.89;21.74;100970.80;1677001;85;21578;-87
2021/05/04 06:44:06;;;;;;;5.70;1.90;;;;;;;27.87;20.85;100968.97;1676971;85;21083;-86
2021/05/04 06:46:32;;;;;;;7.62;2.12;;;;;;;28.78;20.68;100960.93;1698819;83;21116;-87
2021/05/04 06:49:00;;;;;;;3.30;1.70;;;;;;;27.28;20.53;100969.61;1698797;83;21913;-87
2021/05/04 06:51:26;;;;;;;5.70;2.22;;;;;;;27.01;19.80;100967.23;1668358;84;21096;-86
2021/05/04 06:53:53;;;;;;;3.77;1.90;;;;;;;27.40;20.53;100957.58;1639382;87;21589;-84
2021/05/04 06:56:20;;;;;;;4.70;1.82;;;;;;;29.29;20.94;100953.47;1668036;86;21143;-84
2021/05/04 06:58:46;;;;;;;4.70;2.10;;;;;;;27.84;20.24;100964.16;1667303;85;21175;-83
2021/05/04 07:01:11;;;;;;;4.67;1.80;;;;;;;27.14;21.61;100974.81;1639467;87;21253;-86
2021/05/04 07:03:37;;;;;;;4.20;1.95;;;;;;;26.21;20.72;100955.52;1667942;86;21127;-86
2021/05/04 07:06:04;;;;;;;3.02;1.90;;;;;;;28.19;20.17;100955.66;1668193;86;21009;-87
2021/05/04 07:08:30;;;;;;;4.40;1.80;;;;;;;27.10;20.02;100966.44;1639378;87;21097;-86
2021/05/04 07:10:57;;;;;;;5.58;1.87;;;;;;;27.88;19.97;100966.41;1668009;85;20949;-86
2021/05/04 07:13:23;;;;;;;2.95;1.80;;;;;;;27.01;20.33;100960.91;1667930;86;21210;-87
2021/05/04 07:15:49;;;;;;;5.45;1.50;;;;;;;28.95;20.09;100961.17;1639373;87;21592;-86
2021/05/04 07:18:16;;;;;;;2.85;1.72;;;;;;;29.04;19.18;100970.62;1667889;85;21172;-85
2021/05/04 07:20:42;;;;;;;2.02;1.80;;;;;;;30.11;19.10;100965.43;1668025;85;21139;-86
2021/05/04 07:23:10;;;;;;;5.00;1.80;;;;;;;30.37;18.28;100962.29;1639461;87;21172;-86
2021/05/04 07:25:38;;;;;;;1.85;1.55;;;;;;;28.84;19.12;100970.52;1617518;87;21751;-85
2021/05/04 07:28:04;;;;;;;3.85;1.80;;;;;;;30.14;19.03;100956.32;1638722;86;21183;-86
2021/05/04 07:30:33;;;;;;;3.17;2.10;;;;;;;29.67;19.41;100963.44;1667992;85;21584;-85
2021/05/04 07:33:00;;;;;;;5.00;1.72;;;;;;;29.52;18.66;100967.22;1625263;87;21219;-86
2021/05/04 07:35:27;;;;;;;4.37;2.00;;;;;;;29.59;20.11;100965.33;1606760;89;21190;-87
2021/05/04 07:37:55;;;;;;;3.35;2.00;;;;;;;30.20;18.44;100970.66;1585785;89;21818;-85
2021/05/04 07:40:22;;;;;;;4.33;1.57;;;;;;;28.89;19.96;100954.94;1606970;89;21474;-85
2021/05/04 07:42:48;;;;;;;3.27;1.77;;;;;;;28.38;20.02;100963.08;1606946;89;21238;-85
2021/05/04 07:45:14;;;;;;;2.67;1.50;;;;;;;28.06;19.57;100958.39;1607025;89;20956;-85
2021/05/04 07:47:41;;;;;;;6.50;1.72;;;;;;;27.93;20.39;100963.34;1603437;89;21177;-85
2021/05/04 07:50:11;;;;;;;4.55;1.82;;;;;;;28.70;20.33;100964.17;1608690;88;21894;-84
2021/05/04 07:52:38;;;;;;;2.62;1.60;;;;;;;29.66;19.29;100963.23;1613186;88;21201;-86
2021/05/04 07:59:15;;;;;;;4.90;1.60;;;;;;;28.55;19.35;100971.49;1655126;86;21213;-87
2021/05/04 09:18:04;;;;;;;3.52;1.42;;;;;;;29.28;17.91;100933.83;1619741;87;21595;-86
2021/05/04 09:20:33;;;;;;;4.25;1.40;;;;;;;28.98;18.86;100938.80;1629378;87;21197;-87
2021/05/04 09:23:07;;;;;;;4.85;1.37;;;;;;;27.47;20.75;100948.61;1628766;87;21211;-84
2021/05/04 09:25:38;;;;;;;3.80;1.37;;;;;;;28.54;20.04;100940.78;1613708;87;21218;-84
2021/05/04 09:28:13;;;;;;;2.20;1.30;;;;;;;29.32;18.59;100936.84;1632204;87;21156;-83
2021/05/04 09:30:40;;;;;;;3.87;1.32;;;;;;;29.36;19.59;100952.97;1632143;87;21197;-85
2021/05/04 09:33:08;;;;;;;3.58;1.27;;;;;;;28.14;19.47;100949.04;1632226;87;21201;-84
2021/05/04 09:35:35;;;;;;;6.35;1.47;;;;;;;26.96;20.50;100942.03;1632150;87;21259;-82
2021/05/04 09:38:13;;;;;;;2.87;1.30;;;;;;;27.09;20.42;100953.78;1651150;86;21185;-83
2021/05/04 09:40:42;;;;;;;4.00;1.30;;;;;;;26.59;21.53;100948.55;1654293;86;21231;-84
2021/05/04 09:43:27;;;;;;;5.78;1.42;;;;;;;26.92;21.49;100945.91;1592288;89;21263;-85
2021/05/04 09:45:56;;;;;;;3.70;1.25;;;;;;;26.74;21.15;100948.28;1557520;90;21170;-85
2021/05/04 09:48:40;;;;;;;1.72;1.25;;;;;;;27.18;21.00;100946.68;1575535;90;21267;-83
2021/05/04 09:51:15;;;;;;;2.70;1.70;;;;;;;27.34;21.10;100942.44;1550450;92;21254;-84
2021/05/04 09:53:57;;;;;;;5.08;1.87;;;;;;;27.27;20.45;100945.08;1550071;92;21230;-85
2021/05/04 09:56:34;;;;;;;2.00;1.20;;;;;;;26.99;20.85;100941.89;1536383;92;21123;-83
2021/05/04 09:59:01;;;;;;;3.37;1.20;;;;;;;26.08;21.43;100937.42;1551840;92;21643;-84
2021/05/04 10:01:28;;;;;;;3.05;1.20;;;;;;;26.19;21.80;100941.25;1551923;92;22470;-84
2021/05/04 10:03:53;;;;;;;2.08;1.37;;;;;;;25.52;22.52;100951.31;1551722;92;21190;-84
2021/05/04 10:06:21;;;;;;;2.55;1.02;;;;;;;25.08;22.01;100951.23;1551838;92;21123;-85
2021/05/04 10:08:50;;;;;;;4.12;1.40;;;;;;;24.95;21.73;100951.05;1551779;92;21118;-86
2021/05/04 10:11:22;;;;;;;4.92;1.55;;;;;;;24.26;23.27;100939.25;1551793;92;21178;-86
2021/05/04 10:13:54;;;;;;;2.15;1.32;;;;;;;24.23;22.58;100945.45;1551735;91;21265;-85
2021/05/04 10:16:24;;;;;;;4.33;1.45;;;;;;;23.31;23.00;100952.09;1551718;92;20980;-85
2021/05/04 10:19:03;;;;;;;4.47;1.22;;;;;;;22.99;24.00;100962.47;1502386;95;21915;-83
2021/05/04 10:21:29;;;;;;;3.40;1.15;;;;;;;22.18;24.38;100957.50;1499063;95;21263;-85
2021/05/04 10:23:56;;;;;;;2.95;1.20;;;;;;;22.33;23.09;100968.50;1501526;95;21100;-83
2021/05/04 10:26:29;;;;;;;3.12;1.27;;;;;;;21.95;24.28;100967.88;1508692;95;21889;-85
2021/05/04 10:29:00;;;;;;;2.12;0.85;;;;;;;21.54;24.72;100956.34;1508845;95;21724;-84
2021/05/04 10:31:35;;;;;;;3.70;0.88;;;;;;;21.88;24.75;100957.95;1473685;97;21239;-87
2021/05/04 10:34:30;;;;;;;16.25;1.00;;;;;;;22.35;23.56;100956.59;1473802;97;21290;-83
2021/05/04 10:37:21;;;;;;;1.22;0.78;;;;;;;22.47;21.76;100960.81;1473806;96;21275;-83
2021/05/04 10:39:47;;;;;;;7.72;0.90;;;;;;;21.59;22.38;100959.50;1426399;98;21894;-84
2021/05/04 10:42:17;;;;;;;2.02;0.88;;;;;;;21.58;22.23;100960.61;1450851;98;21224;-85
2021/05/04 10:45:00;;;;;;;1.55;0.95;;;;;;;21.69;22.63;100963.25;1450961;98;21525;-84
2021/05/04 10:47:48;;;;;;;;;;;;;;;21.62;22.80;100969.81;1445522;98;21338;-87
2021/05/04 10:50:23;;;;;;;2.05;1.02;;;;;;;21.08;23.43;100966.56;1440704;99;20317;-84
2021/05/04 10:55:27;;;;;;;6.67;1.00;;;;;;;21.11;23.95;100960.44;1435113;99;21669;-83
2021/05/04 10:58:08;;;;;;;4.62;1.27;;;;;;;21.32;23.98;100951.83;1434271;99;21329;-83
2021/05/04 11:00:58;;;;;;;2.55;0.82;;;;;;;21.53;24.05;100956.66;1435436;98;21242;-83
2021/05/04 11:03:35;;;;;;;6.12;1.62;;;;;;;21.49;23.96;100942.80;1435077;98;21766;-83
2021/05/04 11:06:08;;;;;;;2.95;1.55;;;;;;;21.38;23.99;100939.34;1459982;98;21254;-84
2021/05/04 11:08:51;;;;;;;1.90;0.95;;;;;;;21.29;25.15;100951.66;1458265;98;21274;-84
2021/05/04 11:11:42;;;;;;;2.58;1.20;;;;;;;21.20;24.38;100931.66;1459046;98;21494;-85
2021/05/04 11:14:22;;;;;;;3.60;1.25;;;;;;;21.20;24.38;100931.66;1458460;98;21203;-84
2021/05/04 11:16:59;;;;;;;7.25;1.30;;;;;;;21.28;24.95;100930.86;1512519;93;21683;-84
2021/05/04 11:19:30;;;;;;;2.62;1.15;;;;;;;21.13;24.79;100936.27;1513381;93;21255;-84
2021/05/04 11:22:07;;;;;;;4.97;1.20;;;;;;;21.62;24.93;100936.90;1514567;94;21858;-83
2021/05/04 11:24:38;;;;;;;7.87;1.10;;;;;;;21.35;24.91;100925.68;1514625;94;21226;-86
2021/05/04 11:27:10;;;;;;;2.20;1.12;;;;;;;21.15;25.50;100932.66;1514556;93;21303;-86
2021/05/04 11:29:40;;;;;;;2.52;1.00;;;;;;;20.97;25.65;100931.02;1526898;93;37735;-84
2021/05/04 11:32:39;;;;;;;5.47;1.22;;;;;;;20.58;26.52;100928.63;1526746;93;22015;-85
2021/05/04 11:35:08;;;;;;;3.45;1.00;;;;;;;20.29;26.60;100920.38;1493411;94;21304;-86
2021/05/04 11:37:41;;;;;;;4.83;1.37;;;;;;;20.34;26.97;100905.76;1522924;93;21233;-85
2021/05/04 11:40:18;;;;;;;5.55;2.10;;;;;;;20.55;27.75;100908.16;1522527;93;21255;-85
2021/05/04 11:42:49;;;;;;;7.20;2.80;;;;;;;21.31;26.27;100904.97;1511261;93;21274;-85
2021/05/04 11:45:26;;;;;;;10.80;3.77;;;;;;;21.16;25.66;100914.27;1480567;95;21432;-86
2021/05/04 11:47:56;;;;;;;7.03;3.30;;;;;;;21.00;25.90;100914.76;1479209;96;21219;-86
2021/05/04 11:50:33;;;;;;;11.40;4.70;;;;;;;20.78;26.04;100918.44;1478767;96;21253;-86
2021/05/04 11:53:04;;;;;;;6.70;1.90;;;;;;;20.56;26.76;100916.64;1538769;91;21203;-85
2021/05/04 11:55:34;;;;;;;5.25;1.60;;;;;;;20.67;26.58;100912.22;1526453;93;21198;-86
2021/05/04 11:58:10;;;;;;;11.90;3.70;;;;;;;20.62;27.71;100912.63;1554657;92;21244;-85
2021/05/04 12:00:38;;;;;;;9.20;3.27;;;;;;;20.79;27.09;100909.08;1524557;94;21632;-85
2021/05/04 12:03:14;;;;;;;8.63;3.30;;;;;;;20.69;28.58;100920.36;1555355;91;22328;-86
2021/05/04 12:05:42;;;;;;;7.62;2.00;;;;;;;20.93;26.47;100904.83;1526484;94;21151;-87
2021/05/04 12:08:09;;;;;;;3.30;1.47;;;;;;;20.34;27.69;100913.41;1554775;91;21268;-87
2021/05/04 12:10:49;;;;;;;6.65;1.80;;;;;;;20.11;27.40;100902.30;1551814;91;21231;-85
2021/05/04 12:13:22;;;;;;;3.15;1.50;;;;;;;19.80;27.40;100900.98;1524522;92;21684;-88
2021/05/04 12:15:51;;;;;;;;;;;;;;;19.42;28.30;100906.27;1534941;93;21158;-87
2021/05/04 12:18:28;;;;;;;6.12;1.92;;;;;;;19.50;28.37;100902.80;1489191;94;20506;-86
2021/05/04 12:20:58;;;;;;;10.72;2.70;;;;;;;19.24;29.05;100898.52;1524379;92;21403;-89
2021/05/04 12:23:31;;;;;;;5.35;2.52;;;;;;;19.87;29.10;100899.39;1491596;94;21226;-82
2021/05/04 12:26:20;;;;;;;7.47;2.47;;;;;;;19.93;28.61;100887.75;1431343;98;22386;-82
2021/05/04 12:28:54;;;;;;;5.47;1.90;;;;;;;20.10;27.53;100887.02;1431587;98;21654;-82
2021/05/04 12:31:30;;;;;;;8.30;2.10;;;;;;;20.16;27.40;100883.01;1455551;97;21258;-82
2021/05/04 12:33:59;;;;;;;6.87;1.90;;;;;;;19.86;27.61;100886.04;1450625;98;21219;-82
2021/05/04 12:36:51;;;;;;;9.35;2.00;;;;;;;19.76;27.46;100897.23;1450198;98;21311;-82
2021/05/04 12:41:57;;;;;;;3.58;1.70;;;;;;;19.14;28.12;100895.21;1407837;99;21657;-82
2021/05/04 12:44:29;;;;;;;4.53;1.50;;;;;;;19.11;28.55;100906.20;1396561;101;21293;-82
2021/05/04 12:47:02;;;;;;;5.17;1.30;;;;;;;18.95;27.86;100910.42;1398344;101;21197;-82
2021/05/04 12:49:43;;;;;;;2.80;1.22;;;;;;;18.79;28.43;100908.02;1411151;100;21807;-82
2021/05/04 12:52:13;;;;;;;2.05;1.12;;;;;;;19.00;28.27;100912.48;1382869;103;21572;-83
2021/05/04 12:54:41;;;;;;;1.82;1.00;;;;;;;18.79;28.73;100916.77;1393498;101;21619;-82
2021/05/04 12:57:22;;;;;;;4.35;1.17;;;;;;;18.92;28.60;100925.50;1393707;101;21295;-83
2021/05/04 12:59:48;;;;;;;7.85;1.47;;;;;;;18.63;28.72;100927.19;1387498;103;21226;-81